sensor_id;sensor_type;location;lat;lon;timestamp;P1;durP1;ratioP1;P2;durP2;ratioP2
16308;SDS011;8263;48.880;9.276;2023-04-15T00:00:42;139.40;;;129.40;;
16308;SDS011;8263;48.880;9.276;2023-04-15T00:03:10;139.50;;;129.48;;
16308;SDS011;8263;48.880;9.276;2023-04-15T00:05:37;139.57;;;129.57;;
16308;SDS011;8263;48.880;9.276;2023-04-15T00:08:03;137.93;;;128.05;;
16308;SDS011;8263;48.880;9.276;2023-04-15T00:10:30;139.35;;;129.32;;
16308;SDS011;8263;48.880;9.276;2023-04-15T00:12:57;140.90;;;130.50;;
16308;SDS011;8263;48.880;9.276;2023-04-15T00:15:23;141.07;;;130.88;;
16308;SDS011;8263;48.880;9.276;2023-04-15T00:17:50;138.45;;;128.48;;
16308;SDS011;8263;48.880;9.276;2023-04-15T00:20:18;139.32;;;129.32;;
16308;SDS011;8263;48.880;9.276;2023-04-15T00:22:45;138.93;;;128.95;;
16308;SDS011;8263;48.880;9.276;2023-04-15T00:25:12;138.35;;;128.43;;
16308;SDS011;8263;48.880;9.276;2023-04-15T00:27:39;140.65;;;130.50;;
16308;SDS011;8263;48.880;9.276;2023-04-15T00:30:06;140.88;;;130.68;;
16308;SDS011;8263;48.880;9.276;2023-04-15T00:32:33;137.85;;;127.95;;
16308;SDS011;8263;48.880;9.276;2023-04-15T00:35:00;138.18;;;128.25;;
16308;SDS011;8263;48.880;9.276;2023-04-15T00:37:30;140.20;;;130.00;;
16308;SDS011;8263;48.880;9.276;2023-04-15T00:39:56;140.82;;;130.63;;
16308;SDS011;8263;48.880;9.276;2023-04-15T00:42:23;140.90;;;130.70;;
16308;SDS011;8263;48.880;9.276;2023-04-15T00:44:50;138.27;;;128.35;;
16308;SDS011;8263;48.880;9.276;2023-04-15T00:47:16;139.90;;;129.82;;
16308;SDS011;8263;48.880;9.276;2023-04-15T00:49:43;140.20;;;130.07;;
16308;SDS011;8263;48.880;9.276;2023-04-15T00:52:10;141.75;;;131.45;;
16308;SDS011;8263;48.880;9.276;2023-04-15T00:54:37;139.38;;;129.30;;
16308;SDS011;8263;48.880;9.276;2023-04-15T00:57:04;139.43;;;129.32;;
16308;SDS011;8263;48.880;9.276;2023-04-15T00:59:31;140.45;;;130.25;;
16308;SDS011;8263;48.880;9.276;2023-04-15T01:01:58;136.88;;;127.07;;
16308;SDS011;8263;48.880;9.276;2023-04-15T01:04:25;140.88;;;130.68;;
16308;SDS011;8263;48.880;9.276;2023-04-15T01:06:51;140.80;;;130.52;;
16308;SDS011;8263;48.880;9.276;2023-04-15T01:09:18;141.48;;;131.20;;
16308;SDS011;8263;48.880;9.276;2023-04-15T01:11:47;141.95;;;131.65;;
16308;SDS011;8263;48.880;9.276;2023-04-15T01:14:13;140.20;;;129.85;;
16308;SDS011;8263;48.880;9.276;2023-04-15T01:16:40;142.27;;;131.90;;
16308;SDS011;8263;48.880;9.276;2023-04-15T01:19:07;143.30;;;132.77;;
16308;SDS011;8263;48.880;9.276;2023-04-15T01:21:35;140.50;;;130.32;;
16308;SDS011;8263;48.880;9.276;2023-04-15T01:24:04;142.77;;;132.02;;
16308;SDS011;8263;48.880;9.276;2023-04-15T01:26:38;142.63;;;132.02;;
16308;SDS011;8263;48.880;9.276;2023-04-15T01:29:05;141.07;;;130.77;;
16308;SDS011;8263;48.880;9.276;2023-04-15T01:31:32;141.82;;;131.50;;
16308;SDS011;8263;48.880;9.276;2023-04-15T01:33:58;142.05;;;131.73;;
16308;SDS011;8263;48.880;9.276;2023-04-15T01:36:25;141.38;;;130.98;;
16308;SDS011;8263;48.880;9.276;2023-04-15T01:38:52;142.88;;;132.25;;
16308;SDS011;8263;48.880;9.276;2023-04-15T01:41:20;143.77;;;133.27;;
16308;SDS011;8263;48.880;9.276;2023-04-15T01:43:49;141.75;;;131.45;;
16308;SDS011;8263;48.880;9.276;2023-04-15T01:46:17;144.23;;;133.65;;
16308;SDS011;8263;48.880;9.276;2023-04-15T01:48:45;143.57;;;133.07;;
16308;SDS011;8263;48.880;9.276;2023-04-15T01:51:12;142.63;;;132.23;;
16308;SDS011;8263;48.880;9.276;2023-04-15T01:53:38;144.13;;;133.55;;
16308;SDS011;8263;48.880;9.276;2023-04-15T01:56:05;142.48;;;132.07;;
16308;SDS011;8263;48.880;9.276;2023-04-15T01:58:32;144.75;;;134.13;;
16308;SDS011;8263;48.880;9.276;2023-04-15T02:01:00;143.70;;;133.18;;
16308;SDS011;8263;48.880;9.276;2023-04-15T02:03:28;143.07;;;132.63;;
16308;SDS011;8263;48.880;9.276;2023-04-15T02:05:55;144.82;;;134.23;;
16308;SDS011;8263;48.880;9.276;2023-04-15T02:08:22;143.85;;;133.35;;
16308;SDS011;8263;48.880;9.276;2023-04-15T02:10:48;143.43;;;132.90;;
16308;SDS011;8263;48.880;9.276;2023-04-15T02:13:15;144.43;;;133.82;;
16308;SDS011;8263;48.880;9.276;2023-04-15T02:15:45;144.93;;;134.23;;
16308;SDS011;8263;48.880;9.276;2023-04-15T02:18:14;142.48;;;132.07;;
16308;SDS011;8263;48.880;9.276;2023-04-15T02:20:41;142.98;;;132.48;;
16308;SDS011;8263;48.880;9.276;2023-04-15T02:23:07;141.85;;;131.52;;
16308;SDS011;8263;48.880;9.276;2023-04-15T02:25:35;144.30;;;133.73;;
16308;SDS011;8263;48.880;9.276;2023-04-15T02:28:03;144.40;;;133.80;;
16308;SDS011;8263;48.880;9.276;2023-04-15T02:30:30;144.23;;;133.63;;
16308;SDS011;8263;48.880;9.276;2023-04-15T02:32:56;143.00;;;132.50;;
16308;SDS011;8263;48.880;9.276;2023-04-15T02:35:24;144.77;;;134.15;;
16308;SDS011;8263;48.880;9.276;2023-04-15T02:37:51;144.25;;;133.57;;
16308;SDS011;8263;48.880;9.276;2023-04-15T02:40:17;143.80;;;133.27;;
16308;SDS011;8263;48.880;9.276;2023-04-15T02:42:44;145.85;;;135.07;;
16308;SDS011;8263;48.880;9.276;2023-04-15T02:45:10;144.65;;;133.85;;
16308;SDS011;8263;48.880;9.276;2023-04-15T02:47:37;143.95;;;133.35;;
16308;SDS011;8263;48.880;9.276;2023-04-15T02:50:06;145.35;;;134.65;;
16308;SDS011;8263;48.880;9.276;2023-04-15T02:52:35;144.70;;;134.10;;
16308;SDS011;8263;48.880;9.276;2023-04-15T02:55:01;144.25;;;133.68;;
16308;SDS011;8263;48.880;9.276;2023-04-15T02:57:29;144.57;;;133.93;;
16308;SDS011;8263;48.880;9.276;2023-04-15T02:59:55;144.32;;;133.73;;
16308;SDS011;8263;48.880;9.276;2023-04-15T03:02:22;145.20;;;134.50;;
16308;SDS011;8263;48.880;9.276;2023-04-15T03:04:48;143.95;;;133.40;;
16308;SDS011;8263;48.880;9.276;2023-04-15T03:07:16;144.55;;;133.93;;
16308;SDS011;8263;48.880;9.276;2023-04-15T03:09:44;146.02;;;135.25;;
16308;SDS011;8263;48.880;9.276;2023-04-15T03:12:11;144.95;;;134.25;;
16308;SDS011;8263;48.880;9.276;2023-04-15T03:14:38;143.85;;;133.27;;
16308;SDS011;8263;48.880;9.276;2023-04-15T03:17:05;144.80;;;134.05;;
16308;SDS011;8263;48.880;9.276;2023-04-15T03:19:32;144.65;;;133.98;;
16308;SDS011;8263;48.880;9.276;2023-04-15T03:21:58;144.80;;;134.15;;
16308;SDS011;8263;48.880;9.276;2023-04-15T03:24:24;146.60;;;135.45;;
16308;SDS011;8263;48.880;9.276;2023-04-15T03:26:54;146.70;;;135.40;;
16308;SDS011;8263;48.880;9.276;2023-04-15T03:29:21;145.93;;;135.15;;
16308;SDS011;8263;48.880;9.276;2023-04-15T03:31:48;145.80;;;135.00;;
16308;SDS011;8263;48.880;9.276;2023-04-15T03:34:15;145.85;;;135.05;;
16308;SDS011;8263;48.880;9.276;2023-04-15T03:36:41;146.88;;;135.98;;
16308;SDS011;8263;48.880;9.276;2023-04-15T03:39:08;146.65;;;135.70;;
16308;SDS011;8263;48.880;9.276;2023-04-15T03:41:34;146.10;;;135.25;;
16308;SDS011;8263;48.880;9.276;2023-04-15T03:44:02;146.27;;;135.48;;
16308;SDS011;8263;48.880;9.276;2023-04-15T03:46:28;145.02;;;134.32;;
16308;SDS011;8263;48.880;9.276;2023-04-15T03:48:55;146.13;;;135.32;;
16308;SDS011;8263;48.880;9.276;2023-04-15T03:51:21;145.30;;;134.60;;
16308;SDS011;8263;48.880;9.276;2023-04-15T03:53:48;146.07;;;135.27;;
16308;SDS011;8263;48.880;9.276;2023-04-15T03:56:14;146.18;;;135.27;;
16308;SDS011;8263;48.880;9.276;2023-04-15T03:58:41;145.68;;;134.95;;
16308;SDS011;8263;48.880;9.276;2023-04-15T04:01:09;143.18;;;132.68;;
16308;SDS011;8263;48.880;9.276;2023-04-15T04:03:36;146.05;;;135.18;;
16308;SDS011;8263;48.880;9.276;2023-04-15T04:06:02;147.20;;;136.30;;
16308;SDS011;8263;48.880;9.276;2023-04-15T04:08:29;147.68;;;136.68;;
16308;SDS011;8263;48.880;9.276;2023-04-15T04:10:55;145.95;;;135.15;;
16308;SDS011;8263;48.880;9.276;2023-04-15T04:13:22;145.63;;;134.85;;
16308;SDS011;8263;48.880;9.276;2023-04-15T04:15:50;144.95;;;134.15;;
16308;SDS011;8263;48.880;9.276;2023-04-15T04:18:17;145.90;;;135.07;;
16308;SDS011;8263;48.880;9.276;2023-04-15T04:20:44;146.30;;;135.48;;
16308;SDS011;8263;48.880;9.276;2023-04-15T04:23:14;147.55;;;136.55;;
16308;SDS011;8263;48.880;9.276;2023-04-15T04:25:40;147.02;;;136.13;;
16308;SDS011;8263;48.880;9.276;2023-04-15T04:28:07;147.68;;;136.68;;
16308;SDS011;8263;48.880;9.276;2023-04-15T04:30:34;147.38;;;136.38;;
16308;SDS011;8263;48.880;9.276;2023-04-15T04:33:00;144.98;;;134.30;;
16308;SDS011;8263;48.880;9.276;2023-04-15T04:35:28;146.57;;;135.65;;
16308;SDS011;8263;48.880;9.276;2023-04-15T04:37:57;146.13;;;135.23;;
16308;SDS011;8263;48.880;9.276;2023-04-15T04:40:24;148.60;;;137.50;;
16308;SDS011;8263;48.880;9.276;2023-04-15T04:42:51;145.35;;;134.60;;
16308;SDS011;8263;48.880;9.276;2023-04-15T04:45:17;146.80;;;135.93;;
16308;SDS011;8263;48.880;9.276;2023-04-15T04:47:44;145.98;;;135.07;;
16308;SDS011;8263;48.880;9.276;2023-04-15T04:50:11;146.65;;;135.68;;
16308;SDS011;8263;48.880;9.276;2023-04-15T04:52:39;148.52;;;137.32;;
16308;SDS011;8263;48.880;9.276;2023-04-15T04:55:06;146.15;;;135.30;;
16308;SDS011;8263;48.880;9.276;2023-04-15T04:57:32;146.32;;;135.50;;
16308;SDS011;8263;48.880;9.276;2023-04-15T04:59:59;146.25;;;135.40;;
16308;SDS011;8263;48.880;9.276;2023-04-15T05:02:26;146.73;;;135.82;;
16308;SDS011;8263;48.880;9.276;2023-04-15T05:04:53;148.70;;;137.60;;
16308;SDS011;8263;48.880;9.276;2023-04-15T05:07:19;149.45;;;138.23;;
16308;SDS011;8263;48.880;9.276;2023-04-15T05:09:47;145.00;;;134.23;;
16308;SDS011;8263;48.880;9.276;2023-04-15T05:12:14;147.57;;;136.52;;
16308;SDS011;8263;48.880;9.276;2023-04-15T05:14:40;147.93;;;136.82;;
16308;SDS011;8263;48.880;9.276;2023-04-15T05:17:07;148.73;;;137.63;;
16308;SDS011;8263;48.880;9.276;2023-04-15T05:19:33;148.20;;;137.20;;
16308;SDS011;8263;48.880;9.276;2023-04-15T05:22:00;148.05;;;136.98;;
16308;SDS011;8263;48.880;9.276;2023-04-15T05:24:26;147.02;;;136.07;;
16308;SDS011;8263;48.880;9.276;2023-04-15T05:26:54;149.00;;;137.90;;
16308;SDS011;8263;48.880;9.276;2023-04-15T05:29:21;147.95;;;136.77;;
16308;SDS011;8263;48.880;9.276;2023-04-15T05:31:47;147.27;;;136.25;;
16308;SDS011;8263;48.880;9.276;2023-04-15T05:34:14;148.68;;;137.45;;
16308;SDS011;8263;48.880;9.276;2023-04-15T05:36:41;147.75;;;136.75;;
16308;SDS011;8263;48.880;9.276;2023-04-15T05:39:08;147.25;;;136.20;;
16308;SDS011;8263;48.880;9.276;2023-04-15T05:41:34;148.68;;;137.57;;
16308;SDS011;8263;48.880;9.276;2023-04-15T05:44:03;147.55;;;136.52;;
16308;SDS011;8263;48.880;9.276;2023-04-15T05:46:30;147.32;;;136.32;;
16308;SDS011;8263;48.880;9.276;2023-04-15T05:48:56;148.32;;;137.27;;
16308;SDS011;8263;48.880;9.276;2023-04-15T05:51:23;148.23;;;137.13;;
16308;SDS011;8263;48.880;9.276;2023-04-15T05:53:49;147.38;;;136.43;;
16308;SDS011;8263;48.880;9.276;2023-04-15T05:56:16;148.18;;;137.15;;
16308;SDS011;8263;48.880;9.276;2023-04-15T05:58:44;148.20;;;137.18;;
16308;SDS011;8263;48.880;9.276;2023-04-15T06:01:12;148.63;;;137.52;;
16308;SDS011;8263;48.880;9.276;2023-04-15T06:03:39;146.43;;;135.55;;
16308;SDS011;8263;48.880;9.276;2023-04-15T06:06:06;147.85;;;136.80;;
16308;SDS011;8263;48.880;9.276;2023-04-15T06:08:32;147.23;;;136.27;;
16308;SDS011;8263;48.880;9.276;2023-04-15T06:10:59;148.73;;;137.63;;
16308;SDS011;8263;48.880;9.276;2023-04-15T06:13:26;147.65;;;136.65;;
16308;SDS011;8263;48.880;9.276;2023-04-15T06:15:52;149.23;;;137.88;;
16308;SDS011;8263;48.880;9.276;2023-04-15T06:18:20;146.95;;;135.93;;
16308;SDS011;8263;48.880;9.276;2023-04-15T06:20:47;146.57;;;135.68;;
16308;SDS011;8263;48.880;9.276;2023-04-15T06:23:13;148.10;;;136.93;;
16308;SDS011;8263;48.880;9.276;2023-04-15T06:25:40;149.43;;;138.02;;
16308;SDS011;8263;48.880;9.276;2023-04-15T06:28:06;149.43;;;137.90;;
16308;SDS011;8263;48.880;9.276;2023-04-15T06:30:33;148.60;;;137.23;;
16308;SDS011;8263;48.880;9.276;2023-04-15T06:33:00;147.32;;;136.32;;
16308;SDS011;8263;48.880;9.276;2023-04-15T06:35:31;147.55;;;136.55;;
16308;SDS011;8263;48.880;9.276;2023-04-15T06:37:57;148.00;;;136.95;;
16308;SDS011;8263;48.880;9.276;2023-04-15T06:40:23;147.68;;;136.57;;
16308;SDS011;8263;48.880;9.276;2023-04-15T06:42:50;147.40;;;136.43;;
16308;SDS011;8263;48.880;9.276;2023-04-15T06:45:17;148.57;;;137.38;;
16308;SDS011;8263;48.880;9.276;2023-04-15T06:47:44;147.13;;;135.85;;
16308;SDS011;8263;48.880;9.276;2023-04-15T06:50:10;148.88;;;137.68;;
16308;SDS011;8263;48.880;9.276;2023-04-15T06:52:39;147.05;;;136.15;;
16308;SDS011;8263;48.880;9.276;2023-04-15T06:55:06;147.65;;;136.65;;
16308;SDS011;8263;48.880;9.276;2023-04-15T06:57:32;147.02;;;136.13;;
16308;SDS011;8263;48.880;9.276;2023-04-15T06:59:59;147.55;;;136.57;;
16308;SDS011;8263;48.880;9.276;2023-04-15T07:02:26;146.98;;;136.07;;
16308;SDS011;8263;48.880;9.276;2023-04-15T07:04:52;147.25;;;136.35;;
16308;SDS011;8263;48.880;9.276;2023-04-15T07:07:19;146.35;;;135.50;;
16308;SDS011;8263;48.880;9.276;2023-04-15T07:09:47;148.20;;;137.10;;
16308;SDS011;8263;48.880;9.276;2023-04-15T07:12:14;147.52;;;136.40;;
16308;SDS011;8263;48.880;9.276;2023-04-15T07:14:40;147.57;;;136.57;;
16308;SDS011;8263;48.880;9.276;2023-04-15T07:17:07;146.68;;;135.73;;
16308;SDS011;8263;48.880;9.276;2023-04-15T07:19:34;145.77;;;134.82;;
16308;SDS011;8263;48.880;9.276;2023-04-15T07:22:01;146.32;;;135.50;;
16308;SDS011;8263;48.880;9.276;2023-04-15T07:24:27;144.82;;;134.07;;
16308;SDS011;8263;48.880;9.276;2023-04-15T07:26:56;146.85;;;135.95;;
16308;SDS011;8263;48.880;9.276;2023-04-15T07:29:23;145.85;;;135.02;;
16308;SDS011;8263;48.880;9.276;2023-04-15T07:31:49;144.52;;;133.75;;
16308;SDS011;8263;48.880;9.276;2023-04-15T07:34:16;144.38;;;133.63;;
16308;SDS011;8263;48.880;9.276;2023-04-15T07:36:42;145.57;;;134.63;;
16308;SDS011;8263;48.880;9.276;2023-04-15T07:39:10;145.93;;;135.02;;
16308;SDS011;8263;48.880;9.276;2023-04-15T07:41:36;143.77;;;133.18;;
16308;SDS011;8263;48.880;9.276;2023-04-15T07:44:04;143.45;;;132.93;;
16308;SDS011;8263;48.880;9.276;2023-04-15T07:46:31;144.30;;;133.60;;
16308;SDS011;8263;48.880;9.276;2023-04-15T07:48:58;144.75;;;134.10;;
16308;SDS011;8263;48.880;9.276;2023-04-15T07:51:27;145.07;;;134.38;;
16308;SDS011;8263;48.880;9.276;2023-04-15T07:53:54;144.25;;;133.65;;
16308;SDS011;8263;48.880;9.276;2023-04-15T07:56:21;145.68;;;134.90;;
16308;SDS011;8263;48.880;9.276;2023-04-15T07:58:48;143.57;;;133.07;;
16308;SDS011;8263;48.880;9.276;2023-04-15T08:01:16;145.77;;;134.98;;
16308;SDS011;8263;48.880;9.276;2023-04-15T08:03:42;144.98;;;134.23;;
16308;SDS011;8263;48.880;9.276;2023-04-15T08:06:09;144.75;;;134.10;;
16308;SDS011;8263;48.880;9.276;2023-04-15T08:08:37;143.38;;;132.93;;
16308;SDS011;8263;48.880;9.276;2023-04-15T08:11:03;143.43;;;132.95;;
16308;SDS011;8263;48.880;9.276;2023-04-15T08:13:30;143.85;;;133.25;;
16308;SDS011;8263;48.880;9.276;2023-04-15T08:16:12;144.70;;;133.95;;
16308;SDS011;8263;48.880;9.276;2023-04-15T08:18:41;142.48;;;132.02;;
16308;SDS011;8263;48.880;9.276;2023-04-15T08:21:08;144.93;;;134.18;;
16308;SDS011;8263;48.880;9.276;2023-04-15T08:23:35;144.20;;;133.50;;
16308;SDS011;8263;48.880;9.276;2023-04-15T08:26:01;141.63;;;131.32;;
16308;SDS011;8263;48.880;9.276;2023-04-15T08:28:28;144.25;;;133.75;;
16308;SDS011;8263;48.880;9.276;2023-04-15T08:30:55;142.43;;;131.80;;
16308;SDS011;8263;48.880;9.276;2023-04-15T08:33:21;144.70;;;133.90;;
16308;SDS011;8263;48.880;9.276;2023-04-15T08:35:49;142.52;;;132.02;;
16308;SDS011;8263;48.880;9.276;2023-04-15T08:38:16;141.88;;;131.60;;
16308;SDS011;8263;48.880;9.276;2023-04-15T08:40:43;141.27;;;130.98;;
16308;SDS011;8263;48.880;9.276;2023-04-15T08:43:11;142.07;;;131.55;;
16308;SDS011;8263;48.880;9.276;2023-04-15T08:45:38;140.63;;;130.40;;
16308;SDS011;8263;48.880;9.276;2023-04-15T08:48:05;141.93;;;130.98;;
16308;SDS011;8263;48.880;9.276;2023-04-15T08:50:33;139.63;;;129.35;;
16308;SDS011;8263;48.880;9.276;2023-04-15T08:53:01;139.50;;;129.45;;
16308;SDS011;8263;48.880;9.276;2023-04-15T08:55:31;138.30;;;128.20;;
16308;SDS011;8263;48.880;9.276;2023-04-15T08:57:59;138.63;;;128.68;;
16308;SDS011;8263;48.880;9.276;2023-04-15T09:00:26;137.68;;;127.88;;
16308;SDS011;8263;48.880;9.276;2023-04-15T09:02:53;138.05;;;128.15;;
16308;SDS011;8263;48.880;9.276;2023-04-15T09:05:21;137.73;;;127.88;;
16308;SDS011;8263;48.880;9.276;2023-04-15T09:07:47;136.73;;;126.95;;
16308;SDS011;8263;48.880;9.276;2023-04-15T09:10:15;137.57;;;127.65;;
16308;SDS011;8263;48.880;9.276;2023-04-15T09:12:42;135.32;;;125.40;;
16308;SDS011;8263;48.880;9.276;2023-04-15T09:15:10;136.75;;;126.95;;
16308;SDS011;8263;48.880;9.276;2023-04-15T09:17:40;136.10;;;126.03;;
16308;SDS011;8263;48.880;9.276;2023-04-15T09:20:08;135.02;;;125.47;;
16308;SDS011;8263;48.880;9.276;2023-04-15T09:22:35;134.02;;;124.55;;
16308;SDS011;8263;48.880;9.276;2023-04-15T09:25:11;134.43;;;124.88;;
16308;SDS011;8263;48.880;9.276;2023-04-15T09:27:52;134.60;;;124.97;;
16308;SDS011;8263;48.880;9.276;2023-04-15T09:30:19;134.35;;;124.85;;
16308;SDS011;8263;48.880;9.276;2023-04-15T09:32:49;133.43;;;124.00;;
16308;SDS011;8263;48.880;9.276;2023-04-15T09:35:16;134.77;;;125.10;;
16308;SDS011;8263;48.880;9.276;2023-04-15T09:37:43;133.05;;;123.65;;
16308;SDS011;8263;48.880;9.276;2023-04-15T09:40:09;132.57;;;123.25;;
16308;SDS011;8263;48.880;9.276;2023-04-15T09:42:36;131.38;;;122.18;;
16308;SDS011;8263;48.880;9.276;2023-04-15T09:45:22;130.73;;;121.50;;
16308;SDS011;8263;48.880;9.276;2023-04-15T09:47:49;131.43;;;122.20;;
16308;SDS011;8263;48.880;9.276;2023-04-15T09:50:17;132.75;;;123.40;;
16308;SDS011;8263;48.880;9.276;2023-04-15T09:52:44;131.55;;;122.35;;
16308;SDS011;8263;48.880;9.276;2023-04-15T09:55:11;131.88;;;122.60;;
16308;SDS011;8263;48.880;9.276;2023-04-15T09:57:39;132.13;;;122.90;;
16308;SDS011;8263;48.880;9.276;2023-04-15T10:00:09;131.88;;;122.68;;
16308;SDS011;8263;48.880;9.276;2023-04-15T10:02:37;132.05;;;122.80;;
16308;SDS011;8263;48.880;9.276;2023-04-15T10:05:05;133.82;;;124.22;;
16308;SDS011;8263;48.880;9.276;2023-04-15T10:07:32;130.52;;;121.40;;
16308;SDS011;8263;48.880;9.276;2023-04-15T10:09:59;132.20;;;122.55;;
16308;SDS011;8263;48.880;9.276;2023-04-15T10:12:27;131.82;;;122.63;;
16308;SDS011;8263;48.880;9.276;2023-04-15T10:14:55;132.02;;;122.72;;
16308;SDS011;8263;48.880;9.276;2023-04-15T10:17:23;130.15;;;121.05;;
16308;SDS011;8263;48.880;9.276;2023-04-15T10:19:53;130.48;;;121.38;;
16308;SDS011;8263;48.880;9.276;2023-04-15T10:22:20;127.97;;;119.15;;
16308;SDS011;8263;48.880;9.276;2023-04-15T10:24:47;130.75;;;121.30;;
16308;SDS011;8263;48.880;9.276;2023-04-15T10:27:15;129.65;;;120.65;;
16308;SDS011;8263;48.880;9.276;2023-04-15T10:29:42;129.63;;;120.47;;
16308;SDS011;8263;48.880;9.276;2023-04-15T10:32:09;128.55;;;119.65;;
16308;SDS011;8263;48.880;9.276;2023-04-15T10:34:36;129.90;;;120.85;;
16308;SDS011;8263;48.880;9.276;2023-04-15T10:37:08;128.57;;;119.68;;
16308;SDS011;8263;48.880;9.276;2023-04-15T10:39:41;127.70;;;118.90;;
16308;SDS011;8263;48.880;9.276;2023-04-15T10:42:09;127.05;;;118.28;;
16308;SDS011;8263;48.880;9.276;2023-04-15T10:44:36;128.18;;;119.25;;
16308;SDS011;8263;48.880;9.276;2023-04-15T10:47:05;128.23;;;119.43;;
16308;SDS011;8263;48.880;9.276;2023-04-15T10:49:34;127.00;;;118.22;;
16308;SDS011;8263;48.880;9.276;2023-04-15T10:52:09;125.00;;;116.47;;
16308;SDS011;8263;48.880;9.276;2023-04-15T10:54:37;124.75;;;116.18;;
16308;SDS011;8263;48.880;9.276;2023-04-15T10:57:07;126.88;;;118.18;;
16308;SDS011;8263;48.880;9.276;2023-04-15T10:59:37;125.65;;;117.05;;
16308;SDS011;8263;48.880;9.276;2023-04-15T11:02:04;127.53;;;118.80;;
16308;SDS011;8263;48.880;9.276;2023-04-15T11:09:59;127.55;;;118.75;;
16308;SDS011;8263;48.880;9.276;2023-04-15T11:12:35;125.65;;;117.05;;
16308;SDS011;8263;48.880;9.276;2023-04-15T11:17:43;126.53;;;117.78;;
16308;SDS011;8263;48.880;9.276;2023-04-15T11:20:12;124.05;;;115.57;;
16308;SDS011;8263;48.880;9.276;2023-04-15T11:22:45;126.18;;;117.15;;
16308;SDS011;8263;48.880;9.276;2023-04-15T11:25:21;125.32;;;116.75;;
16308;SDS011;8263;48.880;9.276;2023-04-15T11:27:49;125.70;;;116.97;;
16308;SDS011;8263;48.880;9.276;2023-04-15T11:30:17;124.78;;;116.28;;
16308;SDS011;8263;48.880;9.276;2023-04-15T11:32:44;125.13;;;116.60;;
16308;SDS011;8263;48.880;9.276;2023-04-15T11:35:11;125.90;;;117.20;;
16308;SDS011;8263;48.880;9.276;2023-04-15T11:37:39;125.25;;;116.75;;
16308;SDS011;8263;48.880;9.276;2023-04-15T11:40:07;124.60;;;116.10;;
16308;SDS011;8263;48.880;9.276;2023-04-15T11:42:35;125.13;;;116.43;;
16308;SDS011;8263;48.880;9.276;2023-04-15T11:45:05;122.22;;;113.85;;
16308;SDS011;8263;48.880;9.276;2023-04-15T11:47:33;124.68;;;116.18;;
16308;SDS011;8263;48.880;9.276;2023-04-15T11:50:12;124.63;;;116.13;;
16308;SDS011;8263;48.880;9.276;2023-04-15T11:52:40;123.78;;;115.35;;
16308;SDS011;8263;48.880;9.276;2023-04-15T11:55:07;124.22;;;115.75;;
16308;SDS011;8263;48.880;9.276;2023-04-15T11:57:36;124.22;;;115.82;;
16308;SDS011;8263;48.880;9.276;2023-04-15T12:00:02;121.40;;;113.20;;
16308;SDS011;8263;48.880;9.276;2023-04-15T12:02:29;124.78;;;116.28;;
16308;SDS011;8263;48.880;9.276;2023-04-15T12:05:01;124.93;;;116.43;;
16308;SDS011;8263;48.880;9.276;2023-04-15T12:07:29;124.05;;;115.55;;
16308;SDS011;8263;48.880;9.276;2023-04-15T12:09:56;123.18;;;114.18;;
16308;SDS011;8263;48.880;9.276;2023-04-15T12:12:25;122.45;;;114.15;;
16308;SDS011;8263;48.880;9.276;2023-04-15T12:14:53;122.03;;;113.82;;
16308;SDS011;8263;48.880;9.276;2023-04-15T12:17:22;123.80;;;115.40;;
16308;SDS011;8263;48.880;9.276;2023-04-15T12:19:54;122.72;;;114.22;;
16308;SDS011;8263;48.880;9.276;2023-04-15T12:22:21;123.72;;;115.25;;
16308;SDS011;8263;48.880;9.276;2023-04-15T12:24:52;123.38;;;114.97;;
16308;SDS011;8263;48.880;9.276;2023-04-15T12:27:24;124.55;;;116.05;;
16308;SDS011;8263;48.880;9.276;2023-04-15T12:29:56;122.53;;;114.22;;
16308;SDS011;8263;48.880;9.276;2023-04-15T12:32:29;123.68;;;115.25;;
16308;SDS011;8263;48.880;9.276;2023-04-15T12:35:00;124.32;;;115.82;;
16308;SDS011;8263;48.880;9.276;2023-04-15T12:37:26;122.65;;;114.35;;
16308;SDS011;8263;48.880;9.276;2023-04-15T12:39:53;124.30;;;115.80;;
16308;SDS011;8263;48.880;9.276;2023-04-15T12:42:19;124.13;;;115.72;;
16308;SDS011;8263;48.880;9.276;2023-04-15T12:44:46;121.65;;;113.45;;
16308;SDS011;8263;48.880;9.276;2023-04-15T12:47:13;124.28;;;115.78;;
16308;SDS011;8263;48.880;9.276;2023-04-15T12:49:41;122.63;;;114.20;;
16308;SDS011;8263;48.880;9.276;2023-04-15T12:52:07;125.60;;;117.10;;
16308;SDS011;8263;48.880;9.276;2023-04-15T12:54:34;123.28;;;114.93;;
16308;SDS011;8263;48.880;9.276;2023-04-15T12:57:01;124.78;;;116.28;;
16308;SDS011;8263;48.880;9.276;2023-04-15T12:59:28;125.50;;;116.97;;
16308;SDS011;8263;48.880;9.276;2023-04-15T13:01:55;123.03;;;114.57;;
16308;SDS011;8263;48.880;9.276;2023-04-15T13:04:22;123.68;;;115.28;;
16308;SDS011;8263;48.880;9.276;2023-04-15T13:06:50;121.90;;;113.68;;
16308;SDS011;8263;48.880;9.276;2023-04-15T13:09:16;124.65;;;116.18;;
16308;SDS011;8263;48.880;9.276;2023-04-15T13:11:43;122.20;;;113.95;;
16308;SDS011;8263;48.880;9.276;2023-04-15T13:14:09;126.43;;;117.82;;
16308;SDS011;8263;48.880;9.276;2023-04-15T13:16:37;124.15;;;115.63;;
16308;SDS011;8263;48.880;9.276;2023-04-15T13:19:03;124.13;;;115.45;;
16308;SDS011;8263;48.880;9.276;2023-04-15T13:21:30;125.18;;;116.57;;
16308;SDS011;8263;48.880;9.276;2023-04-15T13:24:00;123.97;;;115.57;;
16308;SDS011;8263;48.880;9.276;2023-04-15T13:26:27;125.38;;;116.88;;
16308;SDS011;8263;48.880;9.276;2023-04-15T13:28:53;125.93;;;117.00;;
16308;SDS011;8263;48.880;9.276;2023-04-15T13:31:21;124.20;;;115.70;;
16308;SDS011;8263;48.880;9.276;2023-04-15T13:33:48;124.20;;;115.80;;
16308;SDS011;8263;48.880;9.276;2023-04-15T13:36:14;124.68;;;116.22;;
16308;SDS011;8263;48.880;9.276;2023-04-15T13:38:41;127.00;;;118.35;;
16308;SDS011;8263;48.880;9.276;2023-04-15T13:41:09;125.00;;;116.45;;
16308;SDS011;8263;48.880;9.276;2023-04-15T13:43:36;126.07;;;117.47;;
16308;SDS011;8263;48.880;9.276;2023-04-15T13:46:02;126.97;;;118.28;;
16308;SDS011;8263;48.880;9.276;2023-04-15T13:48:29;125.55;;;117.00;;
16308;SDS011;8263;48.880;9.276;2023-04-15T13:50:55;125.65;;;116.90;;
16308;SDS011;8263;48.880;9.276;2023-04-15T13:53:22;126.10;;;117.50;;
16308;SDS011;8263;48.880;9.276;2023-04-15T13:55:48;124.82;;;116.32;;
16308;SDS011;8263;48.880;9.276;2023-04-15T13:58:17;124.70;;;116.20;;
16308;SDS011;8263;48.880;9.276;2023-04-15T14:00:43;126.18;;;117.57;;
16308;SDS011;8263;48.880;9.276;2023-04-15T14:03:10;126.35;;;117.70;;
16308;SDS011;8263;48.880;9.276;2023-04-15T14:05:36;126.20;;;117.50;;
16308;SDS011;8263;48.880;9.276;2023-04-15T14:08:03;126.10;;;117.50;;
16308;SDS011;8263;48.880;9.276;2023-04-15T14:10:31;126.10;;;117.50;;
16308;SDS011;8263;48.880;9.276;2023-04-15T14:12:58;125.43;;;116.93;;
16308;SDS011;8263;48.880;9.276;2023-04-15T14:15:25;125.38;;;116.78;;
16308;SDS011;8263;48.880;9.276;2023-04-15T14:17:52;125.22;;;116.63;;